createdAt,value
2019-04-30T00:00:45.495Z,34.07
2019-04-30T00:03:19.440Z,32.53
2019-04-30T00:05:49.319Z,29.80
2019-04-30T00:08:16.161Z,39.33
2019-04-30T00:10:45.396Z,31.20
2019-04-30T00:13:17.460Z,32.13
2019-04-30T00:15:45.242Z,36.65
2019-04-30T00:18:15.508Z,28.87
2019-04-30T00:20:45.356Z,33.25
2019-04-30T00:23:17.812Z,34.78
2019-04-30T00:25:46.023Z,31.07
2019-04-30T00:28:15.543Z,32.77
2019-04-30T00:30:47.703Z,34.53
2019-04-30T00:33:15.225Z,34.27
2019-04-30T00:35:45.355Z,34.67
2019-04-30T00:38:15.164Z,35.63
2019-04-30T00:40:45.025Z,35.80
2019-04-30T00:43:15.460Z,37.23
2019-04-30T00:45:47.094Z,33.37
2019-04-30T00:48:19.406Z,33.35
2019-04-30T00:50:45.754Z,37.80
2019-04-30T00:53:16.475Z,40.90
2019-04-30T00:55:48.377Z,38.30
2019-04-30T00:58:17.685Z,39.13
2019-04-30T01:00:49.604Z,41.60
2019-04-30T01:03:19.695Z,39.10
2019-04-30T01:05:48.287Z,38.70
2019-04-30T01:08:21.043Z,38.20
2019-04-30T01:10:46.972Z,39.07
2019-04-30T01:13:15.420Z,38.03
2019-04-30T01:15:48.207Z,41.80
2019-04-30T01:18:14.112Z,41.80
2019-04-30T01:20:42.505Z,39.40
2019-04-30T01:23:14.011Z,44.70
2019-04-30T01:25:43.203Z,41.13
2019-04-30T01:28:16.467Z,42.03
2019-04-30T01:30:43.386Z,39.97
2019-04-30T01:33:12.082Z,44.17
2019-04-30T01:35:40.664Z,38.60
2019-04-30T01:38:12.716Z,42.03
2019-04-30T01:40:42.829Z,45.25
2019-04-30T01:43:12.552Z,45.20
2019-04-30T01:45:40.944Z,44.40
2019-04-30T01:48:12.565Z,45.37
2019-04-30T01:50:42.074Z,47.57
2019-04-30T01:53:13.131Z,51.33
2019-04-30T01:55:59.224Z,51.60
2019-04-30T01:58:30.190Z,52.90
2019-04-30T02:01:00.289Z,53.10
2019-04-30T02:03:29.182Z,49.07
2019-04-30T02:05:59.520Z,57.70
2019-04-30T02:08:29.533Z,50.60
2019-04-30T02:10:59.438Z,54.93
2019-04-30T02:13:31.195Z,53.07
2019-04-30T02:15:59.315Z,56.17
2019-04-30T02:18:29.546Z,58.03
2019-04-30T02:20:59.485Z,62.33
2019-04-30T02:23:29.783Z,54.43
2019-04-30T02:25:58.923Z,48.87
2019-04-30T02:28:28.988Z,61.53
2019-04-30T02:31:00.298Z,60.20
2019-04-30T02:33:30.625Z,56.93
2019-04-30T02:36:04.021Z,56.83
2019-04-30T02:38:34.331Z,58.23
2019-04-30T02:41:03.612Z,53.50
2019-04-30T02:43:33.632Z,63.97
2019-04-30T02:46:03.631Z,59.30
2019-04-30T02:48:33.693Z,60.90
2019-04-30T02:51:04.844Z,58.03
2019-04-30T02:54:03.567Z,49.60
2019-04-30T02:56:32.153Z,65.40
2019-04-30T02:59:03.876Z,56.40
2019-04-30T03:01:30.822Z,55.80
2019-04-30T03:03:59.882Z,67.30
2019-04-30T03:06:30.364Z,58.47
2019-04-30T03:09:01.076Z,62.83
2019-04-30T03:11:30.131Z,62.43
2019-04-30T03:13:59.334Z,66.13
2019-04-30T03:16:32.558Z,59.83
2019-04-30T03:19:02.572Z,58.53
2019-04-30T03:21:50.864Z,62.00
2019-04-30T03:24:20.217Z,59.63
2019-04-30T03:26:49.940Z,63.20
2019-04-30T03:29:23.422Z,63.73
2019-04-30T03:31:52.275Z,55.07
2019-04-30T03:34:25.282Z,58.90
2019-04-30T03:36:50.413Z,60.60
2019-04-30T03:39:19.892Z,59.87
2019-04-30T03:41:50.167Z,59.63
2019-04-30T03:44:25.575Z,61.30
2019-04-30T03:46:49.787Z,60.77
2019-04-30T03:49:20.223Z,56.77
2019-04-30T03:51:49.919Z,57.17
2019-04-30T03:54:19.246Z,54.50
2019-04-30T03:56:50.213Z,66.27
2019-04-30T03:59:19.968Z,65.27
2019-04-30T04:02:02.300Z,61.50
2019-04-30T04:04:32.345Z,64.60
2019-04-30T04:07:14.491Z,59.13
2019-04-30T04:10:01.666Z,53.67
2019-04-30T04:12:30.715Z,59.97
2019-04-30T04:15:03.386Z,52.67
2019-04-30T04:17:31.446Z,54.67
2019-04-30T04:19:59.971Z,57.37
2019-04-30T04:22:30.656Z,58.48
2019-04-30T04:25:00.120Z,52.87
2019-04-30T04:27:30.130Z,61.33
2019-04-30T04:30:01.082Z,64.83
2019-04-30T04:32:30.804Z,58.60
2019-04-30T04:35:00.193Z,64.13
2019-04-30T04:37:30.130Z,60.43
2019-04-30T04:39:59.578Z,56.90
2019-04-30T04:42:32.500Z,58.13
2019-04-30T04:44:59.704Z,64.53
2019-04-30T04:47:30.853Z,57.00
2019-04-30T04:50:00.623Z,64.00
2019-04-30T04:52:31.375Z,57.27
2019-04-30T04:55:00.438Z,60.27
2019-04-30T04:57:30.350Z,54.17
2019-04-30T05:00:06.402Z,50.53
2019-04-30T05:02:33.910Z,62.40
2019-04-30T05:05:02.334Z,53.97
2019-04-30T05:07:30.783Z,57.77
2019-04-30T05:10:01.002Z,63.63
2019-04-30T05:12:29.847Z,51.97
2019-04-30T05:14:59.744Z,61.57
2019-04-30T05:17:31.860Z,54.55
2019-04-30T05:19:59.351Z,62.70
2019-04-30T05:22:29.386Z,56.43
2019-04-30T05:24:58.959Z,62.57
2019-04-30T05:27:27.515Z,52.73
2019-04-30T05:29:55.953Z,56.63
2019-04-30T05:32:24.376Z,56.90
2019-04-30T05:34:52.818Z,56.47
2019-04-30T05:37:22.511Z,58.97
2019-04-30T05:39:51.044Z,49.70
2019-04-30T05:42:19.468Z,58.47
2019-04-30T05:44:49.710Z,50.97
2019-04-30T05:47:19.573Z,62.07
2019-04-30T05:49:48.887Z,54.67
2019-04-30T05:52:19.712Z,49.30
2019-04-30T05:54:48.768Z,48.40
2019-04-30T05:57:19.550Z,48.37
2019-04-30T05:59:48.722Z,50.00
2019-04-30T06:02:19.405Z,51.92
2019-04-30T06:04:48.927Z,49.60
2019-04-30T06:07:18.933Z,53.70
2019-04-30T06:09:50.251Z,48.80
2019-04-30T06:12:39.242Z,50.67
2019-04-30T06:15:25.765Z,51.30
2019-04-30T06:18:00.766Z,49.17
2019-04-30T06:20:24.976Z,51.37
2019-04-30T06:22:54.244Z,47.40
2019-04-30T06:25:31.750Z,52.50
2019-04-30T06:27:53.174Z,48.17
2019-04-30T06:30:21.674Z,46.70
2019-04-30T06:32:50.182Z,46.50
2019-04-30T06:35:19.378Z,44.93
2019-04-30T06:37:48.920Z,51.40
2019-04-30T06:40:19.601Z,43.40
2019-04-30T06:42:49.518Z,42.70
2019-04-30T06:45:19.166Z,41.23
2019-04-30T06:47:49.076Z,37.83
2019-04-30T06:50:19.420Z,37.27
2019-04-30T06:52:56.266Z,33.87
2019-04-30T06:55:19.251Z,41.93
2019-04-30T06:57:49.704Z,31.48
2019-04-30T07:00:20.702Z,36.98
2019-04-30T07:02:49.435Z,28.90
2019-04-30T07:05:18.592Z,33.97
2019-04-30T07:08:09.227Z,30.03
2019-04-30T07:10:36.219Z,28.27
2019-04-30T07:13:12.323Z,30.13
2019-04-30T07:15:40.833Z,29.32
2019-04-30T07:18:09.271Z,32.80
2019-04-30T07:20:38.746Z,29.23
2019-04-30T07:23:09.200Z,31.43
2019-04-30T07:25:39.124Z,31.93
2019-04-30T07:28:09.059Z,27.27
2019-04-30T07:30:39.359Z,29.73
2019-04-30T07:33:09.551Z,28.53
2019-04-30T07:35:39.774Z,28.73
2019-04-30T07:38:09.353Z,33.87
2019-04-30T07:40:39.059Z,28.80
2019-04-30T07:43:09.103Z,30.03
2019-04-30T07:45:39.304Z,30.67
2019-04-30T07:48:09.353Z,28.00
2019-04-30T07:50:40.489Z,32.23
2019-04-30T07:53:11.216Z,29.80
2019-04-30T07:55:39.293Z,26.70
2019-04-30T07:58:09.074Z,27.33
2019-04-30T08:00:40.249Z,28.35
2019-04-30T08:03:10.712Z,21.93
2019-04-30T08:05:41.134Z,23.57
2019-04-30T08:08:20.799Z,24.40
2019-04-30T08:10:39.752Z,28.00
2019-04-30T08:13:13.907Z,27.30
2019-04-30T08:15:42.157Z,25.30
2019-04-30T08:18:08.788Z,28.05
2019-04-30T08:20:39.210Z,28.50
2019-04-30T08:23:20.157Z,28.85
2019-04-30T08:25:39.072Z,28.60
2019-04-30T08:28:09.113Z,28.20
2019-04-30T08:30:39.122Z,31.48
2019-04-30T08:33:09.421Z,27.80
2019-04-30T08:35:39.795Z,25.83
2019-04-30T08:38:10.582Z,26.25
2019-04-30T08:40:43.109Z,28.23
2019-04-30T08:43:09.552Z,28.63
2019-04-30T08:45:38.557Z,23.30
2019-04-30T08:48:08.991Z,27.80
2019-04-30T08:50:39.317Z,28.42
2019-04-30T08:53:07.684Z,26.00
2019-04-30T08:55:36.108Z,23.37
2019-04-30T08:58:09.803Z,26.70
2019-04-30T09:00:35.104Z,27.50
2019-04-30T09:03:03.609Z,33.10
2019-04-30T09:05:36.295Z,31.33
2019-04-30T09:08:06.545Z,26.10
2019-04-30T09:10:34.981Z,26.33
2019-04-30T09:13:03.399Z,23.67
2019-04-30T09:15:31.795Z,27.47
2019-04-30T09:18:06.349Z,26.73
2019-04-30T09:20:31.501Z,33.80
2019-04-30T09:22:59.968Z,27.53
2019-04-30T09:25:28.812Z,28.27
2019-04-30T09:27:58.815Z,23.67
2019-04-30T09:30:27.377Z,26.57
2019-04-30T09:32:55.776Z,21.70
2019-04-30T09:35:24.302Z,24.57
2019-04-30T09:37:58.934Z,23.43
2019-04-30T09:40:23.013Z,22.53
2019-04-30T09:42:51.422Z,23.83
2019-04-30T09:45:19.884Z,24.50
2019-04-30T09:47:50.406Z,26.30
2019-04-30T09:50:18.899Z,19.13
2019-04-30T09:52:49.526Z,22.50
2019-04-30T09:55:19.341Z,22.37
2019-04-30T09:57:48.836Z,23.67
2019-04-30T10:00:19.398Z,20.80
2019-04-30T10:02:48.861Z,20.00
2019-04-30T10:05:19.298Z,21.30
2019-04-30T10:07:49.313Z,22.60
2019-04-30T10:10:19.792Z,20.27
2019-04-30T10:12:49.279Z,21.17
2019-04-30T10:15:29.013Z,20.50
2019-04-30T10:17:58.188Z,18.67
2019-04-30T10:20:43.750Z,21.70
2019-04-30T10:23:12.155Z,19.27
2019-04-30T10:25:40.634Z,18.53
2019-04-30T10:28:09.975Z,22.30
2019-04-30T10:30:38.631Z,23.60
2019-04-30T10:33:07.218Z,20.60
2019-04-30T10:35:36.060Z,21.80
2019-04-30T10:38:05.362Z,19.23
2019-04-30T10:40:33.827Z,15.17
2019-04-30T10:43:02.526Z,19.67
2019-04-30T10:45:32.035Z,20.50
2019-04-30T10:48:00.589Z,29.13
2019-04-30T10:50:28.977Z,24.97
2019-04-30T10:52:59.095Z,21.07
2019-04-30T10:55:28.709Z,16.87
2019-04-30T10:57:59.349Z,16.47
2019-04-30T11:01:01.672Z,16.77
2019-04-30T11:03:29.183Z,15.20
2019-04-30T11:05:58.584Z,17.00
2019-04-30T11:08:27.096Z,21.00
2019-04-30T11:10:55.675Z,19.37
2019-04-30T11:13:24.263Z,16.77
2019-04-30T11:15:52.629Z,17.20
2019-04-30T11:18:21.343Z,16.90
2019-04-30T11:20:50.063Z,16.93
2019-04-30T11:23:21.000Z,13.73
2019-04-30T11:25:51.032Z,11.78
2019-04-30T11:28:19.631Z,17.47
2019-04-30T11:30:50.233Z,10.33
2019-04-30T11:33:18.875Z,25.23
2019-04-30T11:35:50.305Z,11.53
2019-04-30T11:38:20.396Z,16.85
2019-04-30T11:40:48.622Z,16.90
2019-04-30T11:43:18.196Z,13.23
2019-04-30T11:45:56.382Z,10.53
2019-04-30T11:48:24.832Z,13.07
2019-04-30T11:50:53.241Z,13.47
2019-04-30T11:53:27.631Z,12.50
2019-04-30T11:55:52.098Z,11.67
2019-04-30T11:58:21.607Z,14.40
2019-04-30T12:00:50.628Z,12.73
2019-04-30T12:03:19.354Z,15.68
2019-04-30T12:05:49.071Z,16.00
2019-04-30T12:08:26.658Z,14.13
2019-04-30T12:11:05.715Z,14.50
2019-04-30T12:13:34.138Z,15.63
2019-04-30T12:16:02.754Z,28.50
2019-04-30T12:18:31.206Z,15.60
2019-04-30T12:20:59.657Z,16.50
2019-04-30T12:23:28.208Z,22.27
2019-04-30T12:25:56.580Z,16.23
2019-04-30T12:28:27.273Z,15.73
2019-04-30T12:30:55.274Z,17.43
2019-04-30T12:33:23.714Z,17.80
2019-04-30T12:35:52.225Z,14.87
2019-04-30T12:38:20.632Z,14.40
2019-04-30T12:40:49.194Z,19.97
2019-04-30T12:43:17.801Z,20.07
2019-04-30T12:45:46.307Z,20.43
2019-04-30T12:48:18.582Z,18.30
2019-04-30T12:50:50.723Z,18.13
2019-04-30T12:53:37.548Z,16.20
2019-04-30T12:56:13.654Z,18.10
2019-04-30T12:58:42.026Z,14.73
2019-04-30T13:01:11.110Z,19.47
2019-04-30T13:03:39.997Z,18.32
2019-04-30T13:06:11.017Z,15.90
2019-04-30T13:08:39.422Z,15.43
2019-04-30T13:11:12.272Z,12.47
2019-04-30T13:13:40.554Z,17.30
2019-04-30T13:16:08.913Z,18.73
2019-04-30T13:18:39.290Z,15.90
2019-04-30T13:21:08.628Z,20.03
2019-04-30T13:23:37.062Z,16.80
2019-04-30T13:26:05.558Z,16.80
2019-04-30T13:28:44.104Z,16.70
2019-04-30T13:31:12.604Z,18.42
2019-04-30T13:33:42.996Z,14.13
2019-04-30T13:36:11.598Z,14.03
2019-04-30T13:38:52.042Z,15.58
2019-04-30T13:41:29.783Z,16.62
2019-04-30T13:43:59.082Z,13.00
2019-04-30T13:46:28.490Z,15.10
2019-04-30T13:48:58.720Z,24.90
2019-04-30T13:51:27.139Z,14.20
2019-04-30T13:53:55.745Z,17.37
2019-04-30T13:56:24.206Z,14.70
2019-04-30T13:58:53.001Z,24.03
2019-04-30T14:01:21.581Z,14.50
2019-04-30T14:03:59.016Z,15.15
2019-04-30T14:06:29.134Z,15.67
2019-04-30T14:09:04.954Z,16.50
2019-04-30T14:11:33.777Z,18.17
2019-04-30T14:14:02.398Z,16.10
2019-04-30T14:16:30.872Z,15.57
2019-04-30T14:18:59.437Z,17.40
2019-04-30T14:21:33.135Z,14.90
2019-04-30T14:23:59.487Z,15.50
2019-04-30T14:26:29.210Z,16.10
2019-04-30T14:28:58.866Z,22.60
2019-04-30T14:31:28.786Z,15.60
2019-04-30T14:33:59.200Z,16.17
2019-04-30T14:36:29.188Z,21.80
2019-04-30T14:39:13.033Z,14.30
2019-04-30T14:41:31.870Z,18.43
2019-04-30T14:44:00.081Z,16.83
2019-04-30T14:46:39.806Z,14.30
2019-04-30T14:49:17.103Z,20.50
2019-04-30T14:51:46.248Z,15.70
2019-04-30T14:54:20.006Z,16.33
2019-04-30T14:57:06.532Z,16.50
2019-04-30T14:59:45.375Z,22.23
2019-04-30T15:02:15.462Z,20.43
2019-04-30T15:04:43.897Z,24.33
2019-04-30T15:07:12.487Z,16.43
2019-04-30T15:09:40.891Z,15.63
2019-04-30T15:12:09.687Z,13.80
2019-04-30T15:14:38.850Z,17.67
2019-04-30T15:17:08.413Z,13.33
2019-04-30T15:19:36.922Z,15.63
2019-04-30T15:22:05.503Z,16.63
2019-04-30T15:24:39.275Z,13.30
2019-04-30T15:27:09.203Z,14.53
2019-04-30T15:29:39.186Z,23.63
2019-04-30T15:32:08.673Z,13.87
2019-04-30T15:34:39.275Z,13.80
2019-04-30T15:37:18.662Z,17.37
2019-04-30T15:39:39.500Z,17.90
2019-04-30T15:42:10.103Z,19.30
2019-04-30T15:44:40.472Z,13.50
2019-04-30T15:47:09.324Z,14.43
2019-04-30T15:49:37.745Z,13.40
2019-04-30T15:52:06.405Z,18.33
2019-04-30T15:54:34.946Z,14.00
2019-04-30T15:57:04.478Z,13.57
2019-04-30T15:59:34.530Z,18.27
2019-04-30T16:02:13.396Z,11.83
2019-04-30T16:04:59.956Z,20.95
2019-04-30T16:07:29.530Z,17.33
2019-04-30T16:10:05.558Z,15.47
2019-04-30T16:12:45.183Z,13.10
2019-04-30T16:15:13.703Z,15.43
2019-04-30T16:17:43.770Z,12.83
2019-04-30T16:20:17.158Z,13.67
2019-04-30T16:22:45.553Z,16.30
2019-04-30T16:25:14.446Z,17.13
2019-04-30T16:27:42.851Z,13.17
2019-04-30T16:30:11.873Z,17.20
2019-04-30T16:32:40.415Z,14.10
2019-04-30T16:35:09.009Z,15.07
2019-04-30T16:37:38.774Z,16.87
2019-04-30T16:40:08.582Z,11.97
2019-04-30T16:42:39.008Z,16.40
2019-04-30T16:45:09.286Z,20.10
2019-04-30T16:47:37.888Z,15.70
2019-04-30T16:50:08.990Z,16.67
2019-04-30T16:52:39.364Z,14.27
2019-04-30T16:55:08.523Z,17.20
2019-04-30T16:57:39.570Z,24.60
2019-04-30T17:00:09.541Z,14.90
2019-04-30T17:02:39.569Z,16.80
2019-04-30T17:05:19.799Z,15.37
2019-04-30T17:07:55.393Z,13.97
2019-04-30T17:10:31.137Z,17.80
2019-04-30T17:13:03.959Z,20.30
2019-04-30T17:15:34.064Z,17.93
2019-04-30T17:18:03.150Z,16.50
2019-04-30T17:20:31.619Z,16.10
2019-04-30T17:23:00.048Z,17.50
2019-04-30T17:25:28.468Z,16.07
2019-04-30T17:28:01.166Z,14.47
2019-04-30T17:30:29.229Z,15.60
2019-04-30T17:32:59.564Z,15.27
2019-04-30T17:35:28.852Z,16.10
2019-04-30T17:37:57.429Z,18.27
2019-04-30T17:40:25.811Z,15.73
2019-04-30T17:42:54.234Z,14.23
2019-04-30T17:45:22.970Z,15.37
2019-04-30T17:47:51.483Z,18.02
2019-04-30T17:50:22.297Z,15.40
2019-04-30T17:52:50.087Z,15.30
2019-04-30T17:55:19.481Z,15.63
2019-04-30T17:57:48.779Z,14.20
2019-04-30T18:00:22.054Z,20.43
2019-04-30T18:02:48.442Z,15.60
2019-04-30T18:05:16.942Z,14.13
2019-04-30T18:07:45.431Z,18.13
2019-04-30T18:10:14.574Z,16.27
2019-04-30T18:12:43.054Z,16.30
2019-04-30T18:15:15.725Z,16.48
2019-04-30T18:17:45.884Z,13.58
2019-04-30T18:20:16.090Z,10.13
2019-04-30T18:23:02.508Z,16.17
2019-04-30T18:25:32.584Z,16.20
2019-04-30T18:28:02.447Z,19.73
2019-04-30T18:30:32.520Z,25.40
2019-04-30T18:33:00.944Z,14.73
2019-04-30T18:35:29.360Z,13.83
2019-04-30T18:37:58.609Z,14.60
2019-04-30T18:40:27.152Z,14.20
2019-04-30T18:42:55.573Z,20.57
2019-04-30T18:45:24.225Z,21.43
2019-04-30T18:47:52.787Z,27.40
2019-04-30T18:50:21.496Z,32.50
2019-04-30T18:52:51.761Z,27.40
2019-04-30T18:55:20.381Z,28.13
2019-04-30T18:57:56.298Z,35.20
2019-04-30T19:00:21.024Z,33.93
2019-04-30T19:02:49.433Z,31.53
2019-04-30T19:05:19.540Z,34.67
2019-04-30T19:07:59.121Z,35.70
2019-04-30T19:10:32.241Z,34.83
2019-04-30T19:13:02.386Z,32.67
2019-04-30T19:16:11.347Z,33.97
2019-04-30T19:18:10.411Z,35.67
2019-04-30T19:20:40.513Z,34.27
2019-04-30T19:23:10.151Z,34.87
2019-04-30T19:25:38.842Z,31.40
2019-04-30T19:28:14.002Z,33.27
2019-04-30T19:30:38.996Z,38.30
2019-04-30T19:33:08.692Z,33.87
2019-04-30T19:35:37.283Z,35.90
2019-04-30T19:38:06.112Z,37.67
2019-04-30T19:40:34.696Z,37.70
2019-04-30T19:43:03.145Z,40.97
2019-04-30T19:45:31.537Z,35.17
2019-04-30T19:47:59.975Z,33.57
2019-04-30T19:50:28.424Z,30.87
2019-04-30T19:52:58.640Z,34.70
2019-04-30T19:55:28.615Z,36.80
2019-04-30T19:57:57.241Z,35.87
2019-04-30T20:00:26.216Z,36.53
2019-04-30T20:02:57.248Z,42.50
2019-04-30T20:05:24.803Z,34.10
2019-04-30T20:07:53.210Z,35.52
2019-04-30T20:10:21.672Z,33.87
2019-04-30T20:12:50.080Z,33.83
2019-04-30T20:15:21.681Z,32.03
2019-04-30T20:17:49.898Z,38.67
2019-04-30T20:20:18.960Z,37.97
2019-04-30T20:22:47.460Z,33.30
2019-04-30T20:25:15.860Z,42.67
2019-04-30T20:27:44.366Z,42.70
2019-04-30T20:30:13.299Z,34.35
2019-04-30T20:32:41.706Z,43.83
2019-04-30T20:35:10.259Z,42.30
2019-04-30T20:37:56.999Z,48.03
2019-04-30T20:40:27.109Z,46.20
2019-04-30T20:42:55.511Z,47.00
2019-04-30T20:45:24.049Z,45.17
2019-04-30T20:47:52.490Z,42.40
2019-04-30T20:50:20.903Z,43.23
2019-04-30T20:52:49.323Z,39.80
2019-04-30T20:55:17.719Z,40.73
2019-04-30T20:57:46.142Z,47.10
2019-04-30T21:00:14.891Z,41.10
2019-04-30T21:02:43.387Z,43.07
2019-04-30T21:05:11.983Z,42.70
2019-04-30T21:07:40.410Z,44.37
2019-04-30T21:10:10.186Z,42.10
2019-04-30T21:12:39.668Z,47.43
2019-04-30T21:15:09.661Z,37.80
2019-04-30T21:17:38.148Z,41.00
2019-04-30T21:20:09.631Z,40.93
2019-04-30T21:22:38.848Z,41.37
2019-04-30T21:25:10.933Z,47.97
2019-04-30T21:27:40.126Z,43.63
2019-04-30T21:30:10.534Z,44.83
2019-04-30T21:32:56.659Z,45.50
2019-04-30T21:35:26.744Z,49.40
2019-04-30T21:37:56.839Z,43.65
2019-04-30T21:40:25.311Z,47.90
2019-04-30T21:42:53.833Z,41.33
2019-04-30T21:45:22.286Z,45.17
2019-04-30T21:47:56.350Z,47.67
2019-04-30T21:50:20.904Z,47.03
2019-04-30T21:52:49.615Z,48.63
2019-04-30T21:55:19.786Z,48.30
2019-04-30T21:57:49.624Z,47.37
2019-04-30T22:00:32.099Z,49.03
2019-04-30T22:03:00.506Z,52.47
2019-04-30T22:05:28.927Z,43.93
2019-04-30T22:07:59.187Z,47.43
2019-04-30T22:10:27.571Z,48.37
2019-04-30T22:12:56.062Z,51.07
2019-04-30T22:15:24.554Z,46.63
2019-04-30T22:17:53.023Z,48.40
2019-04-30T22:20:21.423Z,48.75
2019-04-30T22:22:49.920Z,49.90
2019-04-30T22:25:19.388Z,49.13
2019-04-30T22:27:47.837Z,51.10
2019-04-30T22:30:16.408Z,49.43
2019-04-30T22:32:44.817Z,49.20
2019-04-30T22:35:26.900Z,48.40
2019-04-30T22:37:59.409Z,54.53
2019-04-30T22:40:29.032Z,50.03
2019-04-30T22:42:59.350Z,54.63
2019-04-30T22:45:29.398Z,61.28
2019-04-30T22:47:58.921Z,48.30
2019-04-30T22:50:27.534Z,51.70
2019-04-30T22:52:55.976Z,50.80
2019-04-30T22:55:24.400Z,57.97
2019-04-30T22:57:52.836Z,78.27
2019-04-30T23:00:23.043Z,56.13
2019-04-30T23:02:53.104Z,54.43
2019-04-30T23:05:21.698Z,57.97
2019-04-30T23:07:50.141Z,55.40
2019-04-30T23:10:18.748Z,52.70
2019-04-30T23:12:47.289Z,51.97
2019-04-30T23:15:18.708Z,51.37
2019-04-30T23:17:47.156Z,47.70
2019-04-30T23:20:15.784Z,49.05
2019-04-30T23:22:44.253Z,50.10
2019-04-30T23:25:12.947Z,53.30
2019-04-30T23:27:41.509Z,52.70
2019-04-30T23:30:10.649Z,50.87
2019-04-30T23:32:39.092Z,46.70
2019-04-30T23:35:08.486Z,47.17
2019-04-30T23:37:36.947Z,51.27
2019-04-30T23:40:30.973Z,58.00
2019-04-30T23:42:59.815Z,65.20
2019-04-30T23:45:28.224Z,55.87
2019-04-30T23:47:56.656Z,51.93
2019-04-30T23:50:25.112Z,51.60
2019-04-30T23:52:53.638Z,51.30
2019-04-30T23:55:22.041Z,54.93
2019-04-30T23:57:50.480Z,58.40
